Time;durP1;ratioP1;P1;durP2;ratioP2;P2;SDS_P1;SDS_P2;PMS_P1;PMS_P2;Temp;Humidity;BMP_temperature;BMP_pressure;BME280_temperature;BME280_humidity;BME280_pressure;Samples;Min_cycle;Max_cycle;Signal;HPM_P1;HPM_P2
2021/01/16 00:00:21;;;;;;;;;;;0.80;99.90;;;;;;5120502;28;20048;-75
2021/01/16 00:02:47;;;;;;;17.48;13.25;;;0.80;99.90;;;;;;5100436;28;19914;-73
2021/01/16 00:05:17;;;;;;;18.23;13.68;;;0.80;99.90;;;;;;5128922;28;20019;-73
2021/01/16 00:07:45;;;;;;;20.00;14.30;;;0.80;99.90;;;;;;5129014;28;20023;-73
2021/01/16 00:10:13;;;;;;;17.55;14.70;;;0.80;99.90;;;;;;5136227;28;20004;-73
2021/01/16 00:12:38;;;;;;;18.17;12.40;;;0.70;99.90;;;;;;5127549;28;20051;-73
2021/01/16 00:15:05;;;;;;;18.05;13.07;;;0.80;99.90;;;;;;5141447;27;20012;-72
2021/01/16 00:17:30;;;;;;;16.25;12.40;;;0.90;99.90;;;;;;5138060;27;20027;-72
2021/01/16 00:19:56;;;;;;;20.88;15.85;;;0.80;99.90;;;;;;5129603;27;20035;-73
2021/01/16 00:22:22;;;;;;;20.13;14.20;;;0.80;99.90;;;;;;5131966;27;20028;-73
2021/01/16 00:24:47;;;;;;;23.17;15.55;;;0.80;99.90;;;;;;5123659;27;20048;-74
2021/01/16 00:27:13;;;;;;;19.52;13.60;;;0.70;99.90;;;;;;5123105;27;20108;-73
2021/01/16 00:29:38;;;;;;;20.13;13.50;;;0.70;99.90;;;;;;5108265;27;20034;-74
2021/01/16 00:32:04;;;;;;;20.50;14.73;;;0.70;99.90;;;;;;5117364;27;20032;-73
2021/01/16 00:34:30;;;;;;;19.73;15.15;;;0.70;99.90;;;;;;5119126;28;20019;-73
2021/01/16 00:36:56;;;;;;;18.00;13.43;;;0.70;99.90;;;;;;5134247;28;20000;-73
2021/01/16 00:39:21;;;;;;;21.05;14.65;;;0.80;99.90;;;;;;5129261;27;20435;-73
2021/01/16 00:41:47;;;;;;;22.27;14.93;;;0.80;99.90;;;;;;5121798;27;20016;-73
2021/01/16 00:44:13;;;;;;;19.70;14.63;;;0.80;99.90;;;;;;5125063;28;20477;-73
2021/01/16 00:46:38;;;;;;;21.67;14.27;;;0.70;99.90;;;;;;5118436;27;20031;-73
2021/01/16 00:49:04;;;;;;;19.50;14.93;;;0.70;99.90;;;;;;5119945;27;20023;-74
2021/01/16 00:51:30;;;;;;;18.90;14.07;;;0.70;99.90;;;;;;5117610;28;20090;-73
2021/01/16 00:53:55;;;;;;;20.25;14.45;;;0.70;99.90;;;;;;5111542;28;20083;-74
2021/01/16 00:56:21;;;;;;;21.35;14.50;;;0.70;99.90;;;;;;5122182;27;20015;-73
2021/01/16 00:58:46;;;;;;;21.13;14.75;;;0.70;99.90;;;;;;5116639;27;20024;-73
2021/01/16 01:01:12;;;;;;;22.55;14.15;;;0.70;99.90;;;;;;5133471;27;20412;-73
2021/01/16 01:03:37;;;;;;;21.25;14.82;;;0.60;99.90;;;;;;5130698;27;20047;-73
2021/01/16 01:06:03;;;;;;;22.70;15.50;;;0.70;99.90;;;;;;5138363;27;20023;-73
2021/01/16 01:08:30;;;;;;;23.50;16.25;;;0.70;99.90;;;;;;5127614;27;20035;-73
2021/01/16 01:10:56;;;;;;;20.50;15.35;;;0.70;99.90;;;;;;5135956;27;20072;-74
2021/01/16 01:13:22;;;;;;;26.30;16.70;;;0.70;99.90;;;;;;5128193;27;20031;-74
2021/01/16 01:15:47;;;;;;;22.17;16.52;;;0.70;99.90;;;;;;5117226;28;20052;-74
2021/01/16 01:18:13;;;;;;;21.75;15.73;;;0.60;99.90;;;;;;5125225;27;20099;-74
2021/01/16 01:20:38;;;;;;;22.85;16.20;;;0.60;99.90;;;;;;5121613;27;20479;-73
2021/01/16 01:23:04;;;;;;;25.35;16.52;;;0.60;99.90;;;;;;5115765;27;20034;-73
2021/01/16 01:25:30;;;;;;;23.95;16.23;;;0.60;99.90;;;;;;5125000;27;20031;-72
2021/01/16 01:27:58;;;;;;;23.40;17.35;;;0.60;99.90;;;;;;5131525;27;20367;-75
2021/01/16 01:30:27;;;;;;;22.52;16.25;;;0.60;99.90;;;;;;5126511;27;20475;-74
2021/01/16 01:32:53;;;;;;;22.17;15.35;;;0.60;99.90;;;;;;5127473;27;20053;-72
2021/01/16 01:35:20;;;;;;;24.30;17.23;;;0.60;99.90;;;;;;5126895;27;20027;-73
2021/01/16 01:37:52;;;;;;;24.60;15.98;;;0.60;99.90;;;;;;5114768;27;20031;-73
2021/01/16 01:40:20;;;;;;;25.00;16.10;;;0.60;99.90;;;;;;5130080;27;20019;-72
2021/01/16 01:42:51;;;;;;;21.75;15.55;;;0.60;99.90;;;;;;5129409;27;20015;-72
2021/01/16 01:45:17;;;;;;;23.27;15.88;;;0.60;99.90;;;;;;5134713;27;20127;-73
2021/01/16 01:47:45;;;;;;;20.60;16.15;;;0.60;99.90;;;;;;5128477;27;20031;-73
2021/01/16 01:50:13;;;;;;;21.67;14.80;;;0.60;99.90;;;;;;5132235;27;20027;-73
2021/01/16 01:52:42;;;;;;;23.92;16.60;;;0.60;99.90;;;;;;5110748;27;20031;-74
2021/01/16 01:55:10;;;;;;;24.92;15.90;;;0.60;99.90;;;;;;5121833;27;20517;-72
2021/01/16 01:57:42;;;;;;;21.33;15.23;;;0.60;99.90;;;;;;5127962;27;20405;-73
2021/01/16 02:00:11;;;;;;;20.58;15.25;;;0.60;99.90;;;;;;5118726;27;20028;-73
2021/01/16 02:02:37;;;;;;;23.88;16.40;;;0.60;99.90;;;;;;5125697;27;20033;-73
2021/01/16 02:05:07;;;;;;;23.95;16.05;;;0.60;99.90;;;;;;5132970;27;20027;-73
2021/01/16 02:07:39;;;;;;;27.25;16.08;;;0.60;99.90;;;;;;5129900;27;20099;-73
2021/01/16 02:10:09;;;;;;;23.52;16.23;;;0.60;99.90;;;;;;5137145;27;20031;-74
2021/01/16 02:12:35;;;;;;;22.30;15.45;;;0.60;99.90;;;;;;5138017;27;20043;-74
2021/01/16 02:15:21;;;;;;;24.17;15.80;;;0.60;99.90;;;;;;5120473;27;20095;-73
2021/01/16 02:17:53;;;;;;;25.50;16.98;;;0.60;99.90;;;;;;5119033;27;20039;-73
2021/01/16 02:20:46;;;;;;;23.80;15.90;;;0.60;99.90;;;;;;5129874;27;20087;-74
2021/01/16 02:23:11;;;;;;;24.40;15.40;;;0.70;99.90;;;;;;5117803;27;20036;-73
2021/01/16 02:25:42;;;;;;;20.10;15.25;;;0.70;99.90;;;;;;5128784;27;20081;-73
2021/01/16 02:28:10;;;;;;;26.13;17.08;;;0.70;99.90;;;;;;5129059;27;20037;-72
2021/01/16 02:30:41;;;;;;;26.58;17.15;;;0.60;99.90;;;;;;5131808;27;20439;-73
2021/01/16 02:33:09;;;;;;;25.58;16.90;;;0.60;99.90;;;;;;5134208;27;20059;-73
2021/01/16 02:35:43;;;;;;;22.70;16.77;;;0.60;99.90;;;;;;5118754;27;20531;-72
2021/01/16 02:38:15;;;;;;;22.95;15.93;;;0.60;99.90;;;;;;5109765;27;20020;-73
2021/01/16 02:40:46;;;;;;;28.35;18.48;;;0.60;99.90;;;;;;5107423;27;20445;-72
2021/01/16 02:43:19;;;;;;;26.42;16.25;;;0.60;99.90;;;;;;5113386;27;20367;-72
2021/01/16 02:45:53;;;;;;;27.73;17.17;;;0.60;99.90;;;;;;5114053;27;20058;-72
2021/01/16 02:48:24;;;;;;;26.08;15.88;;;0.60;99.90;;;;;;5115902;27;20035;-72
2021/01/16 02:50:52;;;;;;;24.52;16.33;;;0.60;99.90;;;;;;5121145;27;20031;-72
2021/01/16 02:53:23;;;;;;;25.77;17.10;;;0.50;99.90;;;;;;5123595;27;20367;-72
2021/01/16 02:55:50;;;;;;;24.23;16.17;;;0.60;99.90;;;;;;5120231;27;20024;-72
2021/01/16 02:58:17;;;;;;;24.40;16.85;;;0.60;99.90;;;;;;5122357;27;20387;-72
2021/01/16 03:00:44;;;;;;;31.05;17.08;;;0.60;99.90;;;;;;5116218;27;20027;-72
2021/01/16 03:03:09;;;;;;;24.83;17.58;;;0.60;99.90;;;;;;5123571;27;20073;-73
2021/01/16 03:05:35;;;;;;;26.40;18.23;;;0.60;99.90;;;;;;5119706;27;20480;-72
2021/01/16 03:08:03;;;;;;;29.15;17.38;;;0.60;99.90;;;;;;5116147;27;20027;-72
2021/01/16 03:10:29;;;;;;;25.17;16.08;;;0.60;99.90;;;;;;5118536;27;20059;-72
2021/01/16 03:12:55;;;;;;;26.30;16.60;;;0.60;99.90;;;;;;5121550;27;20048;-71
2021/01/16 03:15:21;;;;;;;24.13;16.33;;;0.60;99.90;;;;;;5118691;27;20436;-72
2021/01/16 03:17:48;;;;;;;30.10;18.40;;;0.60;99.90;;;;;;5116748;27;20059;-71
2021/01/16 03:20:19;;;;;;;27.67;18.27;;;0.60;99.90;;;;;;5123023;27;20054;-71
2021/01/16 03:22:45;;;;;;;28.45;17.92;;;0.60;99.90;;;;;;5123317;27;20038;-71
2021/01/16 03:25:11;;;;;;;25.63;16.90;;;0.60;99.90;;;;;;5123273;27;20027;-72
2021/01/16 03:27:37;;;;;;;27.42;16.48;;;0.60;99.90;;;;;;5116322;27;20119;-72
2021/01/16 03:30:03;;;;;;;27.33;17.50;;;0.60;99.90;;;;;;5110984;27;20101;-72
2021/01/16 03:32:29;;;;;;;25.73;16.20;;;0.60;99.90;;;;;;5122617;27;20023;-72
2021/01/16 03:34:55;;;;;;;24.70;16.27;;;0.60;99.90;;;;;;5121925;27;20030;-72
2021/01/16 03:37:21;;;;;;;25.42;16.83;;;0.50;99.90;;;;;;5125041;27;20015;-73
2021/01/16 03:39:47;;;;;;;26.50;17.33;;;0.60;99.90;;;;;;5132781;27;20526;-71
2021/01/16 03:42:12;;;;;;;26.45;17.95;;;0.50;99.90;;;;;;5105174;28;20028;-71
2021/01/16 03:44:38;;;;;;;28.63;18.52;;;0.50;99.90;;;;;;5100837;28;20027;-72
2021/01/16 03:47:04;;;;;;;31.40;16.73;;;0.50;99.90;;;;;;5123176;27;20028;-71
2021/01/16 03:49:30;;;;;;;28.10;17.77;;;0.50;99.90;;;;;;5131395;27;20028;-71
2021/01/16 03:51:56;;;;;;;23.90;16.55;;;0.60;99.90;;;;;;5123364;27;20032;-71
2021/01/16 03:54:21;;;;;;;28.00;18.08;;;0.60;99.90;;;;;;5113115;28;20032;-72
2021/01/16 03:56:47;;;;;;;25.25;17.65;;;0.60;99.90;;;;;;5123137;28;20027;-70
2021/01/16 03:59:12;;;;;;;23.65;17.15;;;0.60;99.90;;;;;;5117487;28;20127;-71
2021/01/16 04:01:39;;;;;;;27.45;18.63;;;0.60;99.90;;;;;;5104027;28;20031;-72
2021/01/16 04:04:04;;;;;;;26.42;18.58;;;0.60;99.90;;;;;;5115334;28;20037;-71
2021/01/16 04:06:30;;;;;;;26.40;16.85;;;0.60;99.90;;;;;;5121975;28;20476;-72
2021/01/16 04:08:55;;;;;;;29.95;18.73;;;0.50;99.90;;;;;;5112644;28;20023;-73
2021/01/16 04:11:21;;;;;;;29.35;17.95;;;0.50;99.90;;;;;;5118721;28;20432;-72
2021/01/16 04:13:47;;;;;;;24.73;17.65;;;0.60;99.90;;;;;;5115799;28;20449;-72
2021/01/16 04:16:13;;;;;;;28.80;18.10;;;0.70;99.90;;;;;;5101122;28;20039;-72
2021/01/16 04:18:38;;;;;;;26.55;17.38;;;0.70;99.90;;;;;;5113870;28;20036;-72
2021/01/16 04:21:04;;;;;;;28.17;19.40;;;0.60;99.90;;;;;;5135213;28;20028;-72
2021/01/16 04:23:30;;;;;;;27.13;17.30;;;0.60;99.90;;;;;;5123589;28;20027;-72
2021/01/16 04:25:56;;;;;;;30.60;19.25;;;0.60;99.90;;;;;;5122047;28;20039;-73
2021/01/16 04:28:22;;;;;;;27.02;18.98;;;0.60;99.90;;;;;;5133664;28;20031;-73
2021/01/16 04:30:48;;;;;;;31.08;17.85;;;0.50;99.90;;;;;;5120513;28;20111;-72
2021/01/16 04:33:14;;;;;;;29.13;18.92;;;0.50;99.90;;;;;;5128935;28;20108;-73
2021/01/16 04:35:40;;;;;;;25.60;16.98;;;0.60;99.90;;;;;;5119669;28;20023;-73
2021/01/16 04:38:06;;;;;;;28.92;18.60;;;0.50;99.90;;;;;;5118232;28;20019;-73
2021/01/16 04:40:32;;;;;;;33.35;18.35;;;0.60;99.90;;;;;;5108261;28;20028;-72
2021/01/16 04:43:00;;;;;;;26.98;18.10;;;0.50;99.90;;;;;;5124888;28;20027;-73
2021/01/16 04:45:26;;;;;;;29.15;18.08;;;0.60;99.90;;;;;;5102259;28;20062;-72
2021/01/16 04:47:57;;;;;;;29.48;18.50;;;0.60;99.90;;;;;;5120892;28;20058;-72
2021/01/16 04:50:25;;;;;;;;;;;0.50;99.90;;;;;;5114291;28;20432;-72
2021/01/16 04:52:54;;;;;;;26.05;17.17;;;0.50;99.90;;;;;;5118247;28;19954;-73
2021/01/16 04:55:20;;;;;;;28.65;19.15;;;0.60;99.90;;;;;;5125189;28;20098;-74
2021/01/16 04:57:46;;;;;;;30.58;18.35;;;0.50;99.90;;;;;;5125882;28;20024;-74
2021/01/16 05:00:13;;;;;;;27.10;17.13;;;0.50;99.90;;;;;;5114038;27;20023;-73
2021/01/16 05:02:41;;;;;;;25.20;18.30;;;0.50;99.90;;;;;;5116183;27;20059;-74
2021/01/16 05:05:11;;;;;;;27.33;17.27;;;0.60;99.90;;;;;;5125832;27;20099;-74
2021/01/16 05:07:40;;;;;;;30.92;19.08;;;0.60;99.90;;;;;;5126612;27;20058;-73
2021/01/16 05:10:08;;;;;;;32.00;17.67;;;0.50;99.90;;;;;;5126657;27;20036;-74
2021/01/16 05:12:34;;;;;;;27.90;16.67;;;0.50;99.90;;;;;;5136778;27;20089;-74
2021/01/16 05:15:06;;;;;;;26.45;17.85;;;0.50;99.90;;;;;;5122348;27;20035;-74
2021/01/16 05:17:40;;;;;;;28.17;16.80;;;0.50;99.90;;;;;;5125121;27;20019;-74
2021/01/16 05:20:08;;;;;;;26.58;17.55;;;0.50;99.90;;;;;;5121497;27;20076;-73
2021/01/16 05:22:34;;;;;;;25.65;16.65;;;0.50;99.90;;;;;;5127969;27;20062;-74
2021/01/16 05:25:05;;;;;;;25.33;16.17;;;0.50;99.90;;;;;;5116660;28;20055;-73
2021/01/16 05:27:38;;;;;;;26.10;17.15;;;0.50;99.90;;;;;;5127327;27;20106;-73
2021/01/16 05:30:10;;;;;;;28.20;17.75;;;0.50;98.90;;;;;;5118413;27;20120;-72
2021/01/16 05:32:36;;;;;;;28.25;16.05;;;0.50;99.90;;;;;;5128573;27;20464;-74
2021/01/16 05:35:14;;;;;;;31.52;19.75;;;0.50;97.90;;;;;;5117207;27;20077;-74
2021/01/16 05:37:41;;;;;;;27.48;17.05;;;0.50;99.60;;;;;;5121263;27;20028;-73
2021/01/16 05:40:08;;;;;;;25.80;17.17;;;0.50;95.40;;;;;;5119827;27;20387;-72
2021/01/16 05:42:34;;;;;;;30.20;17.00;;;0.50;98.40;;;;;;5127116;27;20380;-72
2021/01/16 05:45:01;;;;;;;29.42;17.70;;;0.50;97.20;;;;;;5118834;27;20122;-72
2021/01/16 05:47:28;;;;;;;30.10;18.38;;;0.60;96.50;;;;;;5110861;27;20024;-72
2021/01/16 05:49:54;;;;;;;25.15;16.85;;;0.60;92.60;;;;;;5125386;27;20056;-72
2021/01/16 05:52:19;;;;;;;29.08;17.83;;;0.60;84.90;;;;;;5126072;27;20031;-73
2021/01/16 05:54:45;;;;;;;32.13;19.48;;;0.60;95.20;;;;;;5129707;27;20028;-72
2021/01/16 05:57:17;;;;;;;27.23;17.60;;;0.60;96.50;;;;;;5108948;27;20092;-72
2021/01/16 05:59:45;;;;;;;22.98;16.80;;;0.60;97.50;;;;;;5121015;27;20038;-72
2021/01/16 06:02:13;;;;;;;28.60;18.60;;;0.50;95.20;;;;;;5127269;27;20082;-71
2021/01/16 06:04:46;;;;;;;28.65;18.27;;;0.50;99.90;;;;;;5128733;27;20103;-71
2021/01/16 06:07:12;;;;;;;26.30;17.38;;;0.50;99.90;;;;;;5126003;27;20050;-73
2021/01/16 06:09:38;;;;;;;27.25;16.35;;;0.50;99.90;;;;;;5116742;27;20034;-72
2021/01/16 06:12:06;;;;;;;28.70;18.67;;;0.50;99.90;;;;;;5131930;27;20050;-71
2021/01/16 06:14:42;;;;;;;27.45;19.48;;;0.50;99.90;;;;;;5116256;27;20058;-70
2021/01/16 06:17:11;;;;;;;27.48;17.52;;;0.50;99.90;;;;;;5096152;28;20035;-70
2021/01/16 06:19:45;;;;;;;27.08;18.63;;;0.50;99.90;;;;;;5125858;27;20023;-71
2021/01/16 06:22:11;;;;;;;27.95;18.13;;;0.40;99.90;;;;;;5117723;27;20033;-72
2021/01/16 06:24:38;;;;;;;27.58;19.45;;;0.50;99.90;;;;;;5127466;27;20433;-72
2021/01/16 06:27:04;;;;;;;27.58;18.13;;;0.50;99.90;;;;;;5118812;27;20034;-72
2021/01/16 06:29:31;;;;;;;29.95;18.70;;;0.50;98.70;;;;;;5129047;27;20030;-72
2021/01/16 06:32:09;;;;;;;27.17;17.38;;;0.50;98.70;;;;;;5126759;27;20037;-72
2021/01/16 06:34:42;;;;;;;30.65;18.30;;;0.60;99.90;;;;;;5129308;27;20059;-72
2021/01/16 06:37:13;;;;;;;32.15;18.58;;;0.60;99.90;;;;;;5116895;27;20027;-72
2021/01/16 06:39:43;;;;;;;;;;;0.60;99.00;;;;;;5116076;27;20032;-73
2021/01/16 06:42:13;;;;;;;24.75;16.83;;;0.60;98.80;;;;;;5114047;28;19908;-72
2021/01/16 06:44:40;;;;;;;29.90;20.27;;;0.60;97.10;;;;;;5107961;27;20027;-72
2021/01/16 06:47:07;;;;;;;28.55;18.25;;;0.60;99.30;;;;;;5118674;27;20052;-72
2021/01/16 06:49:34;;;;;;;25.27;16.75;;;0.60;99.90;;;;;;5122774;27;20024;-71
2021/01/16 06:52:03;;;;;;;28.52;18.92;;;0.60;96.70;;;;;;5119033;27;20091;-73
2021/01/16 06:54:33;;;;;;;29.15;18.13;;;0.60;96.00;;;;;;5121085;27;20115;-72
2021/01/16 06:57:10;;;;;;;24.90;17.50;;;0.60;97.80;;;;;;5117327;27;20032;-71
2021/01/16 06:59:43;;;;;;;26.70;19.67;;;0.60;92.10;;;;;;5136203;27;20050;-74
2021/01/16 07:02:32;;;;;;;27.08;18.58;;;0.60;94.70;;;;;;5125277;27;20027;-72
2021/01/16 07:05:03;;;;;;;27.02;17.17;;;0.60;92.40;;;;;;5119816;27;20031;-72
2021/01/16 07:07:37;;;;;;;28.17;18.65;;;0.60;88.90;;;;;;5133927;27;20131;-73
2021/01/16 07:10:07;;;;;;;24.38;16.42;;;0.60;85.40;;;;;;5124154;27;20110;-73
2021/01/16 07:12:33;;;;;;;29.75;17.08;;;0.50;93.10;;;;;;5108885;27;20121;-72
2021/01/16 07:14:59;;;;;;;24.80;17.85;;;0.50;91.00;;;;;;5116176;27;20394;-73
2021/01/16 07:17:26;;;;;;;30.75;18.48;;;0.50;95.80;;;;;;5123504;27;20022;-72
2021/01/16 07:19:55;;;;;;;26.13;17.40;;;0.50;99.90;;;;;;5117564;27;20486;-72
2021/01/16 07:22:26;;;;;;;27.75;18.48;;;0.50;92.00;;;;;;5130641;27;20027;-72
2021/01/16 07:24:53;;;;;;;24.75;17.45;;;0.50;98.70;;;;;;5120488;27;20092;-72
2021/01/16 07:27:20;;;;;;;27.15;17.50;;;0.50;93.20;;;;;;5126428;27;20035;-72
2021/01/16 07:29:45;;;;;;;25.00;16.55;;;0.50;82.10;;;;;;5118097;27;20483;-72
2021/01/16 07:32:15;;;;;;;27.35;18.40;;;0.40;85.00;;;;;;5120079;27;20032;-72
2021/01/16 07:34:45;;;;;;;25.77;18.50;;;0.50;97.40;;;;;;5115704;27;20069;-72
2021/01/16 07:37:12;;;;;;;29.08;19.23;;;0.60;96.00;;;;;;5118292;27;20031;-73
2021/01/16 07:39:43;;;;;;;26.67;18.23;;;0.60;70.30;;;;;;5125567;27;20100;-72
2021/01/16 07:42:14;;;;;;;26.80;18.65;;;0.60;82.40;;;;;;5121521;27;20020;-72
2021/01/16 07:44:41;;;;;;;;;;;0.60;68.90;;;;;;5109288;28;20022;-72
2021/01/16 07:47:17;;;;;;;29.05;17.98;;;0.60;73.70;;;;;;5117232;28;19907;-72
2021/01/16 07:49:55;;;;;;;30.55;18.98;;;0.60;85.30;;;;;;5112606;27;20019;-74
2021/01/16 07:52:28;;;;;;;24.65;16.95;;;0.60;76.80;;;;;;5116166;27;20024;-72
2021/01/16 07:55:17;;;;;;;24.70;17.08;;;0.60;80.50;;;;;;5126737;28;20028;-72
2021/01/16 07:57:47;;;;;;;25.17;17.67;;;0.60;71.50;;;;;;5114298;28;20035;-71
2021/01/16 08:00:16;;;;;;;30.55;17.10;;;0.60;86.20;;;;;;5120152;28;20023;-73
2021/01/16 08:03:00;;;;;;;24.45;17.35;;;0.60;75.80;;;;;;5115766;28;20039;-71
2021/01/16 08:05:31;;;;;;;29.70;18.90;;;0.50;85.60;;;;;;5120946;28;20031;-73
2021/01/16 08:08:14;;;;;;;;;;;0.60;77.60;;;;;;5128758;28;20016;-72
2021/01/16 08:10:42;;;;;;;22.02;15.25;;;0.70;97.70;;;;;;5127137;28;19957;-72
2021/01/16 08:13:10;;;;;;;23.63;17.45;;;0.70;57.70;;;;;;5113393;28;20135;-73
2021/01/16 08:15:41;;;;;;;26.80;17.58;;;0.70;61.80;;;;;;5124509;28;20019;-72
2021/01/16 08:18:11;;;;;;;30.40;18.25;;;0.80;67.20;;;;;;5121257;28;20019;-71
2021/01/16 08:20:40;;;;;;;25.30;18.17;;;0.80;54.30;;;;;;5124891;28;20028;-73
2021/01/16 08:23:06;;;;;;;24.00;17.85;;;0.80;65.30;;;;;;5114511;28;20023;-74
2021/01/16 08:25:32;;;;;;;22.00;16.48;;;0.80;52.20;;;;;;5123715;28;20409;-71
2021/01/16 08:28:00;;;;;;;24.60;16.15;;;0.80;55.30;;;;;;5120457;28;20034;-73
2021/01/16 08:30:28;;;;;;;24.55;16.30;;;0.80;45.50;;;;;;5124993;28;20023;-75
2021/01/16 08:32:54;;;;;;;23.55;16.17;;;0.80;28.80;;;;;;5116744;28;20020;-72
2021/01/16 08:35:29;;;;;;;23.90;17.60;;;0.80;55.80;;;;;;5125649;27;20012;-73
2021/01/16 08:38:18;;;;;;;26.25;17.70;;;0.90;53.40;;;;;;5124501;27;20031;-72
2021/01/16 08:41:04;;;;;;;23.27;17.20;;;0.90;43.90;;;;;;5116826;27;20049;-73
2021/01/16 08:43:33;;;;;;;28.50;17.20;;;0.90;62.80;;;;;;5129793;27;20509;-72
2021/01/16 08:46:08;;;;;;;23.75;15.43;;;0.80;49.30;;;;;;5123906;27;20372;-72
2021/01/16 08:48:33;;;;;;;26.73;18.67;;;0.80;56.70;;;;;;5120393;27;20035;-73
2021/01/16 08:50:59;;;;;;;23.00;17.52;;;0.80;90.60;;;;;;5131084;27;20031;-73
2021/01/16 08:53:25;;;;;;;27.67;17.27;;;0.80;91.20;;;;;;5129804;27;20110;-72
2021/01/16 08:55:50;;;;;;;23.05;17.70;;;0.80;82.10;;;;;;5121865;27;20031;-74
2021/01/16 08:58:16;;;;;;;24.50;16.83;;;0.80;96.40;;;;;;5125389;27;20383;-73
2021/01/16 09:00:42;;;;;;;24.35;16.92;;;0.80;89.20;;;;;;5134951;27;20031;-72
2021/01/16 09:03:16;;;;;;;25.55;17.50;;;0.80;96.20;;;;;;5129938;27;20031;-73
2021/01/16 09:05:42;;;;;;;25.52;17.30;;;0.80;99.90;;;;;;5131872;27;20027;-73
2021/01/16 09:08:21;;;;;;;25.35;17.58;;;0.80;99.90;;;;;;5129200;27;20059;-72
2021/01/16 09:10:47;;;;;;;28.52;18.90;;;0.80;99.90;;;;;;5117587;27;20020;-72
2021/01/16 09:13:22;;;;;;;25.42;17.02;;;0.80;99.90;;;;;;5131963;27;20114;-73
2021/01/16 09:15:47;;;;;;;24.45;17.70;;;0.70;99.90;;;;;;5123200;27;20023;-73
2021/01/16 09:18:14;;;;;;;24.30;18.42;;;0.70;99.90;;;;;;5134114;27;20019;-71
2021/01/16 09:21:01;;;;;;;25.25;18.08;;;0.70;99.90;;;;;;5122396;27;20024;-73
2021/01/16 09:23:36;;;;;;;30.73;18.10;;;0.70;99.90;;;;;;5125962;27;20043;-73
2021/01/16 09:26:04;;;;;;;28.23;19.30;;;0.80;99.90;;;;;;5120419;27;20031;-72
2021/01/16 09:28:56;;;;;;;28.73;19.33;;;0.80;99.90;;;;;;5137257;27;20034;-72
2021/01/16 09:31:42;;;;;;;25.65;18.63;;;0.80;99.90;;;;;;5125252;27;20028;-74
2021/01/16 09:34:18;;;;;;;28.13;19.27;;;0.80;99.90;;;;;;5127900;27;20106;-73
2021/01/16 09:36:56;;;;;;;29.58;19.05;;;0.80;99.90;;;;;;5113201;27;20023;-72
2021/01/16 09:39:26;;;;;;;31.33;20.73;;;0.70;99.90;;;;;;5120908;27;20072;-72
2021/01/16 09:41:57;;;;;;;28.88;19.20;;;0.80;99.90;;;;;;5124580;27;20024;-73
2021/01/16 09:44:41;;;;;;;26.88;18.75;;;0.90;99.90;;;;;;5117618;27;20024;-73
2021/01/16 09:47:26;;;;;;;29.25;20.55;;;0.90;99.90;;;;;;5130036;27;20030;-73
2021/01/16 09:50:01;;;;;;;30.33;19.50;;;0.90;99.90;;;;;;5120072;27;20027;-72
2021/01/16 09:52:27;;;;;;;28.13;18.60;;;0.90;99.90;;;;;;5124127;27;20060;-72
2021/01/16 09:54:54;;;;;;;26.75;19.27;;;1.00;99.90;;;;;;5119848;27;20032;-73
2021/01/16 09:57:40;;;;;;;27.98;19.25;;;1.00;99.90;;;;;;5104622;27;20016;-73
2021/01/16 10:00:17;;;;;;;26.85;17.63;;;1.00;99.90;;;;;;5121397;27;20024;-73
2021/01/16 10:02:46;;;;;;;28.00;19.33;;;1.00;99.90;;;;;;5107146;28;20056;-73
2021/01/16 10:05:27;;;;;;;25.38;16.73;;;1.00;94.20;;;;;;5110829;28;20088;-72
2021/01/16 10:07:53;;;;;;;;;;;1.00;90.50;;;;;;5049869;22;20544;-78
2021/01/16 10:10:19;;;;;;;28.15;18.75;;;1.10;93.20;;;;;;4998273;28;19905;-78
2021/01/16 10:12:46;;;;;;;26.05;17.17;;;1.10;85.50;;;;;;4994724;28;20122;-77
2021/01/16 10:15:19;;;;;;;25.38;17.50;;;1.20;70.80;;;;;;5015030;28;20042;-78
2021/01/16 10:17:53;;;;;;;29.10;20.92;;;1.30;67.20;;;;;;4998423;28;20022;-78
2021/01/16 10:20:19;;;;;;;28.90;20.15;;;1.40;71.10;;;;;;5003704;28;20042;-76
2021/01/16 10:22:52;;;;;;;25.73;18.15;;;1.40;74.00;;;;;;4977507;28;20027;-78
2021/01/16 10:25:18;;;;;;;27.85;17.80;;;1.50;67.90;;;;;;4996442;28;20030;-77
2021/01/16 10:27:49;;;;;;;25.50;19.23;;;1.50;57.20;;;;;;4995679;28;20491;-77
2021/01/16 10:30:19;;;;;;;30.48;20.80;;;1.50;90.10;;;;;;4978050;28;20468;-77
2021/01/16 10:32:45;;;;;;;30.33;20.55;;;1.50;47.30;;;;;;4990312;28;20026;-76
2021/01/16 10:35:26;;;;;;;24.25;18.02;;;1.60;83.80;;;;;;5014245;28;20053;-77
2021/01/16 10:37:55;;;;;;;29.05;18.77;;;1.30;78.60;;;;;;4995617;28;20451;-77
2021/01/16 10:40:23;;;;;;;29.63;18.83;;;1.30;92.00;;;;;;4996566;28;20026;-77
2021/01/16 10:42:54;;;;;;;27.48;19.35;;;1.30;92.80;;;;;;4995254;28;20026;-79
2021/01/16 10:45:21;;;;;;;24.20;17.92;;;1.10;99.90;;;;;;4996073;28;20525;-77
2021/01/16 10:47:48;;;;;;;25.58;18.85;;;0.80;97.60;;;;;;4997055;28;20026;-77
2021/01/16 10:50:23;;;;;;;25.58;17.92;;;1.00;99.90;;;;;;4996857;28;20033;-77
2021/01/16 10:53:03;;;;;;;27.80;19.58;;;0.90;90.30;;;;;;4995859;28;20030;-76
2021/01/16 10:55:55;;;;;;;27.42;19.20;;;0.80;99.90;;;;;;4994346;28;20036;-76
2021/01/16 10:58:26;;;;;;;23.83;17.50;;;1.10;92.80;;;;;;5001716;28;20061;-76
2021/01/16 11:00:54;;;;;;;;;;;1.00;99.90;;;;;;5015666;28;20022;-76
2021/01/16 11:03:24;;;;;;;26.05;17.67;;;1.00;72.10;;;;;;5015794;28;20369;-78
2021/01/16 11:05:55;;;;;;;24.85;16.48;;;1.00;72.30;;;;;;4997883;28;20032;-77
2021/01/16 11:08:29;;;;;;;22.25;16.48;;;1.10;59.60;;;;;;5017510;28;20097;-76
2021/01/16 11:10:56;;;;;;;24.15;16.83;;;1.00;57.30;;;;;;4998778;28;20030;-77
2021/01/16 11:13:30;;;;;;;21.52;14.93;;;1.10;49.30;;;;;;5015410;28;20175;-77
2021/01/16 11:16:12;;;;;;;22.85;16.70;;;0.90;57.20;;;;;;5017067;28;20505;-77
2021/01/16 11:18:38;;;;;;;24.98;17.27;;;0.90;56.90;;;;;;4999399;28;20022;-78
2021/01/16 11:21:08;;;;;;;23.48;17.23;;;1.00;80.60;;;;;;4998906;28;20022;-78
2021/01/16 11:24:07;;;;;;;21.85;15.25;;;0.90;61.30;;;;;;5013963;28;20026;-76
2021/01/16 11:26:46;;;;;;;24.67;16.58;;;0.80;67.60;;;;;;5015125;28;20033;-78
2021/01/16 11:29:18;;;;;;;26.98;19.33;;;0.90;50.80;;;;;;4996664;28;20061;-77
2021/01/16 11:32:13;;;;;;;27.00;18.10;;;1.00;60.70;;;;;;5014300;28;20030;-77
2021/01/16 11:34:58;;;;;;;24.88;17.58;;;1.10;31.20;;;;;;4996693;28;20061;-78
2021/01/16 11:37:50;;;;;;;20.52;13.82;;;1.10;19.50;;;;;;5013650;28;20033;-77
2021/01/16 11:40:33;;;;;;;26.13;16.52;;;1.00;44.00;;;;;;5013918;28;20474;-76
2021/01/16 11:43:01;;;;;;;24.88;17.17;;;1.00;35.70;;;;;;5014977;28;20033;-78
2021/01/16 11:45:27;;;;;;;21.38;16.02;;;1.10;15.40;;;;;;5015727;28;20026;-78
2021/01/16 11:47:57;;;;;;;23.75;17.15;;;1.20;15.50;;;;;;5018426;28;20034;-77
2021/01/16 11:50:25;;;;;;;24.40;16.70;;;1.20;2.20;;;;;;5015003;28;20108;-78
2021/01/16 11:52:51;;;;;;;23.77;17.70;;;1.30;1.00;;;;;;5014667;28;20100;-77
2021/01/16 11:55:17;;;;;;;26.75;18.33;;;1.30;1.00;;;;;;5013858;28;20018;-78
2021/01/16 11:57:47;;;;;;;22.67;16.92;;;1.20;1.00;;;;;;5014007;28;20014;-76
2021/01/16 12:00:14;;;;;;;20.35;15.93;;;1.30;1.00;;;;;;5013333;28;20026;-78
2021/01/16 12:02:45;;;;;;;22.08;15.43;;;1.30;1.00;;;;;;4996439;28;20026;-80
2021/01/16 12:05:15;;;;;;;23.73;16.75;;;1.20;1.00;;;;;;5015068;28;20274;-76
2021/01/16 12:07:52;;;;;;;22.75;16.00;;;1.30;1.00;;;;;;5014621;28;20096;-77
2021/01/16 12:10:25;;;;;;;24.35;16.33;;;1.30;1.00;;;;;;5017191;28;20022;-77
2021/01/16 12:12:52;;;;;;;22.08;15.95;;;1.20;1.00;;;;;;5018063;28;20041;-77
2021/01/16 12:15:22;;;;;;;25.35;18.25;;;1.20;1.00;;;;;;5018525;28;20026;-77
2021/01/16 12:17:50;;;;;;;22.23;16.17;;;1.10;2.20;;;;;;5021264;28;20026;-77
2021/01/16 12:20:17;;;;;;;20.05;15.50;;;1.10;1.00;;;;;;5018045;28;20033;-77
2021/01/16 12:22:44;;;;;;;21.08;14.73;;;1.00;1.00;;;;;;5031720;28;20030;-77
2021/01/16 12:25:11;;;;;;;22.35;14.98;;;1.00;1.00;;;;;;5036975;28;20052;-77
2021/01/16 12:27:51;;;;;;;22.30;15.10;;;1.00;1.00;;;;;;5023132;28;20100;-78
2021/01/16 12:30:18;;;;;;;23.55;16.30;;;1.10;1.00;;;;;;5019382;28;20454;-76
2021/01/16 12:32:44;;;;;;;21.90;14.90;;;1.10;1.00;;;;;;5019764;28;20405;-79
2021/01/16 12:35:11;;;;;;;19.77;13.77;;;1.10;1.00;;;;;;5024179;28;20026;-78
2021/01/16 12:37:39;;;;;;;22.50;15.90;;;1.00;1.00;;;;;;5020726;28;20026;-78
2021/01/16 12:40:06;;;;;;;22.30;15.88;;;1.10;1.00;;;;;;5020604;28;20203;-77
2021/01/16 12:42:32;;;;;;;22.38;15.35;;;1.20;1.00;;;;;;5023651;28;20026;-78
2021/01/16 12:45:05;;;;;;;24.77;16.50;;;1.10;1.00;;;;;;5024840;28;20053;-78
2021/01/16 12:47:31;;;;;;;21.25;15.35;;;1.10;1.00;;;;;;5019623;28;20498;-78
2021/01/16 12:49:58;;;;;;;24.40;15.45;;;1.20;1.00;;;;;;5026233;28;20051;-80
2021/01/16 12:52:28;;;;;;;28.10;17.77;;;1.20;1.00;;;;;;4989200;28;20045;-79